createdAt,value
2023-05-16T00:00:23.920Z,11.90
2023-05-16T00:02:52.247Z,11.80
2023-05-16T00:05:20.393Z,11.60
2023-05-16T00:07:48.593Z,11.80
2023-05-16T00:10:16.620Z,11.70
2023-05-16T00:12:44.640Z,11.60
2023-05-16T00:15:14.216Z,11.70
2023-05-16T00:17:46.801Z,11.50
2023-05-16T00:20:17.461Z,11.70
2023-05-16T00:22:46.262Z,11.80
2023-05-16T00:25:14.773Z,11.80
2023-05-16T00:27:42.807Z,11.70
2023-05-16T00:30:11.583Z,11.90
2023-05-16T00:32:40.017Z,11.60
2023-05-16T00:35:11.812Z,11.60
2023-05-16T00:37:39.985Z,11.70
2023-05-16T00:40:09.095Z,11.40
2023-05-16T00:42:37.150Z,11.30
2023-05-16T00:45:06.361Z,11.30
2023-05-16T00:47:34.502Z,11.30
2023-05-16T00:50:02.888Z,11.30
2023-05-16T00:52:33.614Z,11.10
2023-05-16T00:55:02.254Z,11.20
2023-05-16T00:57:30.363Z,11.30
2023-05-16T00:59:58.575Z,11.10
2023-05-16T01:02:29.105Z,11.10
2023-05-16T01:04:57.732Z,11.10
2023-05-16T01:07:25.921Z,11.10
2023-05-16T01:09:55.528Z,11.00
2023-05-16T01:12:29.391Z,11.10
2023-05-16T01:15:03.694Z,11.10
2023-05-16T01:17:40.387Z,10.90
2023-05-16T01:20:15.507Z,10.90
2023-05-16T01:22:53.690Z,10.90
2023-05-16T01:25:36.473Z,11.10
2023-05-16T01:28:06.488Z,11.20
2023-05-16T01:30:36.298Z,10.90
2023-05-16T01:33:05.026Z,10.90
2023-05-16T01:35:33.303Z,10.70
2023-05-16T01:38:05.811Z,10.90
2023-05-16T01:40:40.320Z,10.80
2023-05-16T01:43:13.422Z,10.80
2023-05-16T01:45:44.696Z,10.60
2023-05-16T01:48:17.304Z,10.60
2023-05-16T01:50:48.901Z,10.40
2023-05-16T01:53:20.757Z,10.40
2023-05-16T01:55:49.958Z,10.20
2023-05-16T01:58:21.783Z,9.80
2023-05-16T02:00:49.951Z,9.90
2023-05-16T02:03:18.127Z,9.90
2023-05-16T02:05:46.219Z,9.70
2023-05-16T02:08:15.324Z,9.50
2023-05-16T02:10:43.395Z,9.60
2023-05-16T02:13:11.570Z,9.60
2023-05-16T02:15:40.922Z,9.60
2023-05-16T02:18:09.343Z,9.50
2023-05-16T02:20:37.559Z,9.40
2023-05-16T02:23:05.636Z,9.60
2023-05-16T02:25:33.683Z,9.50
2023-05-16T02:28:01.731Z,9.60
2023-05-16T02:30:29.778Z,9.40
2023-05-16T02:32:59.243Z,9.50
2023-05-16T02:35:27.518Z,9.40
2023-05-16T02:37:56.595Z,9.20
2023-05-16T02:40:24.585Z,9.30
2023-05-16T02:42:52.694Z,9.30
2023-05-16T02:45:20.825Z,9.30
2023-05-16T02:47:48.973Z,9.40
2023-05-16T02:50:18.379Z,9.50
2023-05-16T02:52:47.258Z,9.70
2023-05-16T02:55:22.404Z,9.70
2023-05-16T02:57:51.087Z,9.40
2023-05-16T03:00:20.197Z,9.60
2023-05-16T03:02:48.415Z,9.50
2023-05-16T03:05:18.435Z,9.30
2023-05-16T03:07:46.522Z,9.50
2023-05-16T03:10:14.591Z,9.30
2023-05-16T03:12:42.803Z,9.40
2023-05-16T03:15:11.549Z,9.30
2023-05-16T03:17:39.534Z,9.40
2023-05-16T03:20:10.017Z,9.60
2023-05-16T03:22:40.446Z,9.60
2023-05-16T03:25:09.149Z,9.70
2023-05-16T03:27:37.203Z,9.80
2023-05-16T03:30:06.089Z,9.80
2023-05-16T03:32:34.767Z,9.70
2023-05-16T03:35:03.514Z,9.70
2023-05-16T03:37:31.915Z,9.50
2023-05-16T03:40:02.018Z,9.30
2023-05-16T03:42:30.063Z,9.60
2023-05-16T03:44:58.708Z,9.70
2023-05-16T03:47:26.787Z,9.60
2023-05-16T03:49:54.886Z,9.50
2023-05-16T03:52:22.990Z,9.70
2023-05-16T03:54:51.066Z,9.70
2023-05-16T03:57:20.426Z,9.70
2023-05-16T03:59:48.425Z,9.50
2023-05-16T04:07:36.359Z,9.50
2023-05-16T04:10:07.139Z,9.30
2023-05-16T04:12:37.138Z,9.30
2023-05-16T04:15:06.907Z,9.20
2023-05-16T04:17:35.524Z,9.10
2023-05-16T04:20:05.075Z,8.90
2023-05-16T04:22:33.322Z,8.70
2023-05-16T04:25:01.852Z,9.00
2023-05-16T04:27:30.828Z,8.90
2023-05-16T04:30:01.231Z,8.80
2023-05-16T04:32:30.764Z,8.90
2023-05-16T04:34:59.134Z,9.00
2023-05-16T04:37:27.752Z,8.90
2023-05-16T04:39:56.053Z,8.80
2023-05-16T04:42:24.404Z,8.80
2023-05-16T04:44:52.969Z,8.70
2023-05-16T04:47:22.838Z,8.40
2023-05-16T04:49:51.286Z,8.50
2023-05-16T04:52:20.097Z,8.30
2023-05-16T04:54:48.514Z,8.50
2023-05-16T04:57:17.033Z,8.40
2023-05-16T04:59:45.595Z,8.60
2023-05-16T05:02:14.051Z,8.40
2023-05-16T05:04:44.032Z,8.30
2023-05-16T05:07:12.332Z,8.40
2023-05-16T05:09:41.185Z,8.50
2023-05-16T05:12:11.393Z,8.50
2023-05-16T05:14:39.750Z,8.50
2023-05-16T05:17:09.005Z,8.60
2023-05-16T05:19:37.398Z,8.50
2023-05-16T05:22:08.030Z,8.50
2023-05-16T05:24:36.513Z,8.50
2023-05-16T05:27:05.095Z,8.30
2023-05-16T05:29:33.909Z,8.30
2023-05-16T05:32:02.115Z,8.40
2023-05-16T05:34:30.854Z,8.50
2023-05-16T05:36:59.445Z,8.60
2023-05-16T05:39:29.470Z,8.70
2023-05-16T05:41:58.766Z,8.80
2023-05-16T05:44:27.130Z,8.90
2023-05-16T05:46:55.560Z,8.70
2023-05-16T05:49:24.050Z,8.70
2023-05-16T05:51:52.788Z,8.50
2023-05-16T05:54:21.725Z,8.60
2023-05-16T05:56:51.907Z,8.80
2023-05-16T05:59:20.162Z,8.80
2023-05-16T06:01:53.202Z,8.80
2023-05-16T06:04:21.739Z,8.70
2023-05-16T06:06:50.372Z,8.70
2023-05-16T06:09:19.210Z,9.00
2023-05-16T06:11:47.768Z,8.80
2023-05-16T06:14:17.537Z,8.70
2023-05-16T06:16:46.363Z,8.90
2023-05-16T06:19:16.524Z,8.80
2023-05-16T06:21:45.247Z,9.10
2023-05-16T06:24:14.345Z,9.00
2023-05-16T06:26:42.574Z,9.30
2023-05-16T06:29:11.048Z,9.40
2023-05-16T06:31:40.882Z,9.50
2023-05-16T06:34:09.365Z,9.50
2023-05-16T06:36:37.580Z,9.70
2023-05-16T06:39:06.311Z,9.60
2023-05-16T06:41:34.565Z,9.40
2023-05-16T06:44:03.144Z,9.50
2023-05-16T06:46:31.861Z,9.40
2023-05-16T06:49:01.537Z,9.30
2023-05-16T06:51:29.750Z,9.60
2023-05-16T06:53:58.027Z,9.60
2023-05-16T06:56:26.559Z,9.60
2023-05-16T06:58:54.796Z,9.60
2023-05-16T07:01:23.242Z,9.70
2023-05-16T07:03:52.424Z,9.70
2023-05-16T07:06:22.403Z,9.70
2023-05-16T07:08:50.847Z,9.90
2023-05-16T07:11:19.101Z,9.80
2023-05-16T07:13:47.312Z,9.80
2023-05-16T07:16:15.674Z,9.80
2023-05-16T07:18:44.073Z,9.80
2023-05-16T07:21:12.670Z,9.60
2023-05-16T07:23:42.729Z,9.70
2023-05-16T07:26:12.427Z,9.70
2023-05-16T07:28:40.903Z,9.60
2023-05-16T07:31:09.458Z,9.90
2023-05-16T07:33:41.012Z,10.00
2023-05-16T07:38:45.081Z,10.00
2023-05-16T07:41:15.100Z,9.90
2023-05-16T07:43:43.401Z,10.00
2023-05-16T07:46:12.434Z,10.20
2023-05-16T07:48:41.010Z,10.30
2023-05-16T07:51:09.411Z,10.40
2023-05-16T07:53:37.754Z,10.50
2023-05-16T07:56:11.063Z,10.60
2023-05-16T07:58:39.869Z,10.80
2023-05-16T08:01:08.205Z,11.00
2023-05-16T08:03:37.437Z,10.90
2023-05-16T08:06:06.230Z,10.80
2023-05-16T08:08:34.957Z,10.80
2023-05-16T08:11:03.749Z,10.80
2023-05-16T08:13:33.766Z,10.80
2023-05-16T08:16:02.110Z,10.70
2023-05-16T08:18:30.497Z,11.00
2023-05-16T08:20:58.874Z,11.20
2023-05-16T08:23:27.177Z,11.60
2023-05-16T08:25:55.799Z,11.60
2023-05-16T08:28:24.323Z,11.30
2023-05-16T08:30:54.429Z,11.40
2023-05-16T08:33:23.079Z,11.60
2023-05-16T08:35:53.112Z,11.60
2023-05-16T08:38:21.801Z,11.90
2023-05-16T08:40:50.273Z,11.90
2023-05-16T08:43:18.899Z,11.80
2023-05-16T08:45:50.006Z,11.80
2023-05-16T08:48:23.770Z,12.00
2023-05-16T08:50:53.840Z,12.10
2023-05-16T08:53:26.644Z,12.30
2023-05-16T08:56:03.317Z,12.20
2023-05-16T08:58:32.400Z,12.20
2023-05-16T09:01:03.684Z,12.40
2023-05-16T09:03:34.033Z,12.10
2023-05-16T09:06:03.023Z,12.00
2023-05-16T09:08:33.023Z,12.10
2023-05-16T09:11:02.188Z,12.50
2023-05-16T09:13:31.055Z,12.70
2023-05-16T09:16:14.830Z,12.80
2023-05-16T09:18:46.524Z,13.00
2023-05-16T09:21:15.976Z,12.90
2023-05-16T09:23:47.654Z,12.90
2023-05-16T09:26:16.361Z,13.20
2023-05-16T09:28:45.718Z,13.30
2023-05-16T09:31:26.779Z,13.30
2023-05-16T09:33:58.113Z,13.50
2023-05-16T09:36:27.869Z,13.40
2023-05-16T09:38:58.929Z,13.50
2023-05-16T09:41:27.035Z,13.70
2023-05-16T09:43:55.223Z,13.90
2023-05-16T09:46:27.789Z,13.30
2023-05-16T09:48:57.761Z,13.20
2023-05-16T09:51:26.485Z,13.40
2023-05-16T09:53:54.982Z,13.90
2023-05-16T09:56:23.389Z,14.00
2023-05-16T09:58:53.965Z,13.70
2023-05-16T10:01:22.696Z,13.60
2023-05-16T10:03:51.707Z,14.00
2023-05-16T10:06:24.095Z,13.80
2023-05-16T10:08:56.889Z,13.40
2023-05-16T10:11:25.260Z,13.40
2023-05-16T10:13:54.306Z,13.70
2023-05-16T10:16:24.050Z,13.70
2023-05-16T10:18:53.209Z,14.10
2023-05-16T10:21:26.932Z,14.20
2023-05-16T10:23:56.003Z,14.10
2023-05-16T10:26:24.653Z,14.00
2023-05-16T10:28:53.154Z,14.50
2023-05-16T10:31:21.316Z,14.80
2023-05-16T10:33:49.868Z,14.60
2023-05-16T10:36:18.998Z,14.80
2023-05-16T10:38:49.506Z,14.20
2023-05-16T10:41:18.621Z,14.20
2023-05-16T10:43:47.682Z,14.10
2023-05-16T10:46:16.259Z,14.10
2023-05-16T10:48:44.712Z,14.30
2023-05-16T10:51:35.717Z,14.50
2023-05-16T10:54:10.503Z,14.10
2023-05-16T10:56:39.002Z,14.00
2023-05-16T10:59:24.777Z,14.10
2023-05-16T11:01:55.026Z,14.00
2023-05-16T11:04:23.933Z,14.00
2023-05-16T11:06:54.844Z,13.80
2023-05-16T11:09:27.450Z,13.90
2023-05-16T11:12:07.485Z,14.00
2023-05-16T11:14:42.711Z,14.70
2023-05-16T11:17:13.380Z,14.40
2023-05-16T11:19:46.283Z,15.10
2023-05-16T11:22:25.876Z,15.40
2023-05-16T11:24:57.843Z,15.20
2023-05-16T11:27:31.067Z,14.90
2023-05-16T11:30:04.001Z,15.30
2023-05-16T11:32:33.769Z,15.20
2023-05-16T11:35:04.093Z,15.40
2023-05-16T11:37:33.111Z,15.60
2023-05-16T11:40:04.153Z,15.80
2023-05-16T11:42:34.070Z,16.00
2023-05-16T11:45:07.690Z,16.30
2023-05-16T11:47:38.083Z,16.30
2023-05-16T11:50:07.879Z,16.10
2023-05-16T11:52:36.039Z,16.30
2023-05-16T11:55:07.059Z,15.10
2023-05-16T11:57:35.848Z,14.90
2023-05-16T12:00:08.216Z,14.90
2023-05-16T12:02:37.098Z,14.50
2023-05-16T12:05:10.317Z,14.90
2023-05-16T12:07:39.196Z,14.60
2023-05-16T12:10:10.278Z,14.30
2023-05-16T12:12:40.433Z,14.20
2023-05-16T12:15:11.108Z,14.30
2023-05-16T12:17:41.963Z,15.00
2023-05-16T12:20:14.583Z,14.80
2023-05-16T12:22:43.537Z,15.70
2023-05-16T12:25:28.066Z,15.60
2023-05-16T12:27:57.714Z,16.30
2023-05-16T12:30:27.028Z,16.00
2023-05-16T12:32:58.552Z,16.30
2023-05-16T12:35:27.414Z,16.40
2023-05-16T12:37:56.325Z,16.10
2023-05-16T12:40:30.247Z,16.50
2023-05-16T12:42:58.934Z,16.40
2023-05-16T12:45:31.237Z,16.10
2023-05-16T12:48:08.823Z,15.60
2023-05-16T12:50:37.389Z,15.20
2023-05-16T12:53:05.586Z,15.70
2023-05-16T12:55:35.443Z,15.90
2023-05-16T12:58:03.856Z,15.50
2023-05-16T13:00:33.250Z,15.20
2023-05-16T13:03:02.389Z,15.10
2023-05-16T13:05:30.954Z,15.20
2023-05-16T13:07:59.350Z,15.60
2023-05-16T13:10:27.888Z,15.90
2023-05-16T13:12:58.932Z,15.80
2023-05-16T13:15:27.960Z,15.40
2023-05-16T13:17:56.678Z,15.10
2023-05-16T13:20:24.952Z,14.80
2023-05-16T13:22:53.339Z,14.70
2023-05-16T13:25:21.737Z,14.70
2023-05-16T13:27:50.172Z,14.60
2023-05-16T13:30:20.132Z,14.60
2023-05-16T13:32:48.784Z,14.50
2023-05-16T13:35:17.321Z,14.40
2023-05-16T13:37:45.979Z,14.50
2023-05-16T13:40:14.649Z,14.50
2023-05-16T13:42:44.698Z,14.40
2023-05-16T13:45:13.409Z,14.50
2023-05-16T13:47:44.356Z,14.50
2023-05-16T13:50:14.026Z,14.50
2023-05-16T13:52:42.557Z,14.40
2023-05-16T13:55:11.316Z,14.50
2023-05-16T13:57:40.548Z,14.30
2023-05-16T14:02:45.167Z,14.60
2023-05-16T14:05:13.706Z,15.10
2023-05-16T14:07:44.720Z,15.50
2023-05-16T14:10:15.040Z,16.20
2023-05-16T14:12:43.958Z,16.30
2023-05-16T14:15:12.514Z,16.10
2023-05-16T14:17:41.551Z,15.80
2023-05-16T14:20:13.278Z,15.50
2023-05-16T14:22:41.901Z,15.40
2023-05-16T14:25:10.892Z,15.90
2023-05-16T14:27:40.496Z,16.00
2023-05-16T14:30:10.338Z,15.70
2023-05-16T14:32:40.526Z,15.60
2023-05-16T14:35:12.394Z,15.70
2023-05-16T14:37:41.170Z,15.90
2023-05-16T14:40:10.568Z,16.20
2023-05-16T14:42:42.006Z,16.70
2023-05-16T14:45:11.592Z,16.20
2023-05-16T14:47:41.015Z,16.40
2023-05-16T14:50:12.674Z,15.90
2023-05-16T14:52:42.331Z,15.60
2023-05-16T14:55:11.269Z,15.30
2023-05-16T14:57:39.947Z,15.30
2023-05-16T15:00:10.869Z,15.20
2023-05-16T15:02:39.592Z,15.40
2023-05-16T15:05:08.602Z,15.40
2023-05-16T15:07:38.699Z,15.00
2023-05-16T15:10:08.389Z,14.70
2023-05-16T15:12:37.411Z,14.60
2023-05-16T15:15:06.977Z,14.50
2023-05-16T15:17:35.501Z,14.40
2023-05-16T15:20:04.457Z,14.70
2023-05-16T15:22:33.315Z,14.50
2023-05-16T15:25:05.797Z,14.20
2023-05-16T15:27:34.341Z,14.00
2023-05-16T15:30:02.879Z,14.10
2023-05-16T15:32:31.546Z,14.10
2023-05-16T15:35:00.088Z,14.20
2023-05-16T15:37:28.579Z,14.10
2023-05-16T15:39:56.978Z,14.00
2023-05-16T15:42:27.099Z,14.20
2023-05-16T15:44:55.430Z,14.10
2023-05-16T15:47:23.924Z,14.50
2023-05-16T15:49:52.233Z,14.50
2023-05-16T15:52:22.524Z,14.10
2023-05-16T15:54:51.767Z,14.20
2023-05-16T15:57:21.892Z,14.00
2023-05-16T15:59:52.128Z,13.80
2023-05-16T16:02:20.887Z,13.50
2023-05-16T16:04:49.676Z,13.50
2023-05-16T16:07:18.462Z,13.70
2023-05-16T16:09:46.930Z,13.80
2023-05-16T16:12:17.618Z,13.90
2023-05-16T16:14:46.055Z,13.90
2023-05-16T16:17:16.639Z,13.80
2023-05-16T16:19:45.509Z,13.90
2023-05-16T16:22:14.061Z,14.00
2023-05-16T16:24:42.420Z,14.00
2023-05-16T16:27:11.073Z,14.20
2023-05-16T16:29:39.753Z,14.10
2023-05-16T16:32:09.669Z,14.30
2023-05-16T16:34:39.546Z,14.20
2023-05-16T16:37:10.089Z,14.20
2023-05-16T16:39:40.183Z,14.10
2023-05-16T16:42:10.065Z,14.00
2023-05-16T16:44:38.494Z,13.80
2023-05-16T16:47:07.510Z,14.10
2023-05-16T16:49:36.205Z,14.40
2023-05-16T16:52:06.837Z,14.50
2023-05-16T16:54:35.694Z,14.30
2023-05-16T16:57:04.122Z,14.30
2023-05-16T16:59:32.798Z,14.30
2023-05-16T17:02:01.265Z,14.00
2023-05-16T17:04:30.086Z,13.80
2023-05-16T17:06:59.834Z,13.90
2023-05-16T17:09:30.151Z,13.60
2023-05-16T17:12:04.572Z,13.50
2023-05-16T17:14:33.139Z,13.70
2023-05-16T17:17:03.145Z,13.30
2023-05-16T17:19:31.741Z,13.00
2023-05-16T17:22:01.603Z,13.20
2023-05-16T17:24:32.234Z,13.30
2023-05-16T17:27:01.028Z,13.20
2023-05-16T17:29:29.687Z,13.00
2023-05-16T17:31:58.405Z,12.80
2023-05-16T17:34:27.007Z,13.10
2023-05-16T17:36:55.777Z,13.20
2023-05-16T17:39:25.214Z,12.90
2023-05-16T17:41:59.784Z,12.80
2023-05-16T17:44:28.193Z,12.80
2023-05-16T17:46:59.489Z,12.80
2023-05-16T17:49:28.003Z,12.60
2023-05-16T17:52:05.419Z,12.70
2023-05-16T17:54:33.916Z,12.60
2023-05-16T17:57:04.650Z,12.60
2023-05-16T17:59:36.184Z,12.70
2023-05-16T18:02:04.945Z,12.40
2023-05-16T18:04:33.501Z,12.40
2023-05-16T18:07:03.205Z,12.50
2023-05-16T18:09:31.652Z,12.70
2023-05-16T18:12:00.535Z,12.60
2023-05-16T18:14:30.774Z,12.50
2023-05-16T18:16:59.134Z,12.30
2023-05-16T18:19:27.837Z,12.30
2023-05-16T18:21:56.865Z,12.50
2023-05-16T18:24:26.096Z,12.20
2023-05-16T18:27:01.852Z,12.30
2023-05-16T18:29:31.804Z,12.50
2023-05-16T18:32:00.420Z,12.40
2023-05-16T18:34:28.702Z,12.30
2023-05-16T18:36:59.513Z,12.20
2023-05-16T18:39:28.708Z,12.20
2023-05-16T18:41:58.145Z,12.50
2023-05-16T18:44:26.941Z,12.30
2023-05-16T18:46:57.690Z,12.40
2023-05-16T18:49:26.177Z,12.40
2023-05-16T18:51:54.937Z,12.30
2023-05-16T18:54:24.532Z,12.30
2023-05-16T18:56:55.913Z,12.10
2023-05-16T18:59:24.499Z,12.10
2023-05-16T19:01:55.546Z,12.00
2023-05-16T19:04:25.939Z,12.00
2023-05-16T19:06:56.673Z,12.00
2023-05-16T19:09:26.634Z,12.00
2023-05-16T19:11:55.062Z,12.10
2023-05-16T19:14:23.452Z,12.00
2023-05-16T19:16:51.627Z,11.90
2023-05-16T19:19:22.242Z,12.00
2023-05-16T19:21:52.583Z,12.10
2023-05-16T19:24:21.154Z,12.10
2023-05-16T19:26:49.854Z,12.20
2023-05-16T19:29:19.035Z,12.20
2023-05-16T19:31:47.558Z,12.10
2023-05-16T19:34:16.059Z,11.90
2023-05-16T19:36:45.137Z,12.00
2023-05-16T19:39:16.505Z,12.00
2023-05-16T19:41:47.671Z,12.10
2023-05-16T19:44:20.237Z,12.00
2023-05-16T19:46:48.559Z,12.00
2023-05-16T19:49:19.531Z,11.80
2023-05-16T19:51:48.969Z,11.90
2023-05-16T19:54:18.810Z,11.80
2023-05-16T19:56:47.153Z,11.80
2023-05-16T19:59:15.586Z,11.70
2023-05-16T20:01:43.976Z,11.70
2023-05-16T20:04:12.870Z,11.70
2023-05-16T20:06:41.447Z,11.80
2023-05-16T20:09:11.407Z,11.70
2023-05-16T20:11:42.166Z,11.60
2023-05-16T20:14:10.725Z,11.50
2023-05-16T20:16:38.799Z,11.60
2023-05-16T20:19:07.582Z,11.50
2023-05-16T20:21:36.331Z,11.40
2023-05-16T20:24:06.038Z,11.60
2023-05-16T20:26:34.750Z,11.40
2023-05-16T20:29:05.487Z,11.30
2023-05-16T20:31:34.542Z,11.30
2023-05-16T20:34:03.113Z,11.30
2023-05-16T20:36:31.609Z,11.30
2023-05-16T20:39:00.353Z,11.50
2023-05-16T20:41:29.093Z,11.40
2023-05-16T20:43:59.164Z,11.40
2023-05-16T20:46:33.753Z,11.40
2023-05-16T20:49:02.401Z,11.30
2023-05-16T20:51:32.452Z,11.20
2023-05-16T20:54:00.794Z,11.20
2023-05-16T20:56:29.299Z,11.30
2023-05-16T20:58:58.760Z,11.40
2023-05-16T21:01:29.323Z,11.20
2023-05-16T21:03:57.973Z,11.30
2023-05-16T21:06:26.698Z,11.20
2023-05-16T21:08:55.432Z,11.20
2023-05-16T21:11:24.084Z,11.10
2023-05-16T21:13:52.671Z,11.10
2023-05-16T21:16:21.275Z,11.30
2023-05-16T21:18:51.723Z,11.40
2023-05-16T21:21:20.851Z,11.20
2023-05-16T21:23:49.531Z,11.20
2023-05-16T21:26:18.190Z,11.30
2023-05-16T21:28:55.094Z,11.20
2023-05-16T21:31:24.769Z,11.30
2023-05-16T21:33:54.767Z,11.30
2023-05-16T21:36:24.213Z,11.10
2023-05-16T21:38:52.680Z,11.30
2023-05-16T21:41:22.737Z,11.10
2023-05-16T21:43:51.524Z,11.10
2023-05-16T21:46:21.562Z,11.30
2023-05-16T21:48:50.194Z,11.00
2023-05-16T21:51:19.736Z,11.00
2023-05-16T21:53:47.844Z,11.10
2023-05-16T21:56:15.889Z,10.80
2023-05-16T21:58:44.012Z,10.70
2023-05-16T22:01:12.111Z,10.60
2023-05-16T22:03:41.266Z,10.80
2023-05-16T22:06:09.421Z,10.60
2023-05-16T22:08:38.853Z,10.60
2023-05-16T22:11:06.898Z,10.80
2023-05-16T22:13:34.915Z,10.70
2023-05-16T22:16:04.714Z,10.60
2023-05-16T22:18:34.029Z,10.50
2023-05-16T22:21:02.401Z,10.50
2023-05-16T22:23:31.037Z,10.50
2023-05-16T22:26:00.513Z,10.40
2023-05-16T22:28:28.594Z,10.30
2023-05-16T22:30:56.769Z,10.30
2023-05-16T22:33:25.542Z,10.30
2023-05-16T22:35:53.986Z,10.20
2023-05-16T22:38:22.666Z,10.20
2023-05-16T22:40:51.067Z,10.10
2023-05-16T22:43:20.565Z,10.10
2023-05-16T22:45:51.391Z,10.30
2023-05-16T22:48:19.555Z,10.30
2023-05-16T22:50:47.732Z,10.50
2023-05-16T22:53:15.777Z,10.30
2023-05-16T22:55:43.863Z,10.00
2023-05-16T22:58:12.437Z,9.90
2023-05-16T23:00:41.853Z,9.90
2023-05-16T23:03:10.483Z,9.90
2023-05-16T23:05:38.642Z,10.00
2023-05-16T23:08:07.458Z,9.90
2023-05-16T23:10:36.644Z,9.70
2023-05-16T23:13:04.969Z,9.50
2023-05-16T23:15:33.174Z,9.80
2023-05-16T23:18:03.232Z,9.60
2023-05-16T23:20:31.452Z,10.00
2023-05-16T23:22:59.579Z,9.70
2023-05-16T23:25:28.045Z,9.80
2023-05-16T23:27:57.856Z,9.70
2023-05-16T23:30:26.256Z,9.70
2023-05-16T23:32:54.642Z,9.50
2023-05-16T23:35:24.432Z,9.50
2023-05-16T23:37:52.523Z,9.40
2023-05-16T23:40:21.000Z,9.60
2023-05-16T23:42:49.023Z,9.50
2023-05-16T23:45:17.125Z,9.40
2023-05-16T23:47:45.898Z,9.60
2023-05-16T23:50:15.564Z,9.60
2023-05-16T23:52:45.120Z,9.90
2023-05-16T23:55:13.543Z,9.90
2023-05-16T23:57:42.141Z,9.80
